Time;durP1;ratioP1;P1;durP2;ratioP2;P2;SDS_P1;SDS_P2;PMS_P1;PMS_P2;Temp;Humidity;BMP_temperature;BMP_pressure;BME280_temperature;BME280_humidity;BME280_pressure;Samples;Min_cycle;Max_cycle;Signal;HPM_P1;HPM_P2
2022/01/06 00:01:45;;;;;;;7.40;3.53;;;5.20;99.90;;;;;;5003413;28;20439;-55
2022/01/06 00:04:11;;;;;;;11.37;3.70;;;5.30;99.90;;;;;;5022329;28;20470;-54
2022/01/06 00:06:40;;;;;;;13.03;4.00;;;5.20;99.90;;;;;;5023389;28;20470;-50
2022/01/06 00:09:08;;;;;;;11.97;3.10;;;5.20;99.90;;;;;;5017529;28;20215;-50
2022/01/06 00:11:34;;;;;;;5.87;3.50;;;5.20;99.90;;;;;;5019615;28;20880;-53
2022/01/06 00:14:06;;;;;;;11.80;5.37;;;5.20;99.90;;;;;;5021581;28;20443;-54
2022/01/06 00:16:44;;;;;;;7.30;3.93;;;5.20;99.90;;;;;;5021894;28;20501;-53
2022/01/06 00:24:24;;;;;;;11.50;3.27;;;5.20;99.90;;;;;;5024090;28;20504;-51
2022/01/06 00:26:50;;;;;;;10.30;3.70;;;5.20;99.90;;;;;;5024878;28;20438;-53
2022/01/06 00:29:17;;;;;;;5.17;3.10;;;5.30;99.90;;;;;;5014300;28;20848;-53
2022/01/06 00:31:47;;;;;;;9.93;4.20;;;5.30;99.90;;;;;;5025198;28;20426;-53
2022/01/06 00:34:12;;;;;;;7.70;3.40;;;5.30;99.90;;;;;;5024660;28;20475;-49
2022/01/06 00:36:39;;;;;;;6.40;3.13;;;5.30;99.90;;;;;;5024955;28;20560;-52
2022/01/06 00:39:06;;;;;;;7.83;3.40;;;5.30;99.90;;;;;;5047963;22;20219;-74
2022/01/06 00:41:34;;;;;;;8.47;3.23;;;5.30;99.90;;;;;;5189605;22;20508;-54
2022/01/06 00:43:59;;;;;;;6.00;3.40;;;5.20;99.90;;;;;;5013746;28;20447;-53
2022/01/06 00:46:26;;;;;;;7.37;3.73;;;5.30;99.90;;;;;;5009905;28;20447;-51
2022/01/06 00:48:52;;;;;;;11.00;3.67;;;5.20;99.90;;;;;;5016582;28;20714;-51
2022/01/06 00:51:23;;;;;;;14.87;3.90;;;5.20;99.90;;;;;;5008587;28;21053;-50
2022/01/06 00:53:49;;;;;;;5.17;3.23;;;5.20;99.90;;;;;;5016226;28;20497;-50
2022/01/06 00:56:15;;;;;;;15.67;3.90;;;5.20;99.90;;;;;;5010903;28;20466;-52
2022/01/06 00:58:40;;;;;;;8.10;4.70;;;5.20;99.90;;;;;;5044265;22;20848;-55
2022/01/06 01:01:06;;;;;;;12.20;3.63;;;5.20;99.90;;;;;;5034957;28;20225;-54
2022/01/06 01:03:32;;;;;;;8.57;3.50;;;5.10;99.90;;;;;;5037502;28;20639;-55
2022/01/06 01:05:58;;;;;;;7.27;3.70;;;5.10;99.90;;;;;;5038844;28;20441;-54
2022/01/06 01:08:25;;;;;;;9.03;4.10;;;5.10;99.90;;;;;;5027591;28;20204;-52
2022/01/06 01:10:53;;;;;;;8.40;3.40;;;5.20;99.90;;;;;;5021297;28;20220;-52
2022/01/06 01:13:27;;;;;;;10.20;3.50;;;5.10;99.90;;;;;;5026166;28;20864;-51
2022/01/06 01:15:56;;;;;;;8.20;3.30;;;5.20;99.90;;;;;;5019482;28;20489;-56
2022/01/06 01:18:22;;;;;;;5.03;2.53;;;5.10;99.90;;;;;;5021481;28;20675;-52
2022/01/06 01:20:50;;;;;;;10.00;3.77;;;5.10;99.90;;;;;;5024506;28;20462;-54
2022/01/06 01:23:17;;;;;;;10.10;3.37;;;5.10;99.90;;;;;;5024451;28;20447;-52
2022/01/06 01:25:43;;;;;;;6.97;3.77;;;5.10;99.90;;;;;;5026540;28;20450;-51
2022/01/06 01:28:10;;;;;;;11.20;3.60;;;5.10;99.90;;;;;;5023298;28;20459;-53
2022/01/06 01:33:20;;;;;;;9.10;3.07;;;5.20;99.90;;;;;;5026157;28;20452;-51
2022/01/06 01:35:46;;;;;;;6.37;4.20;;;5.20;99.90;;;;;;5026716;28;22280;-52
2022/01/06 01:38:11;;;;;;;11.13;3.07;;;5.30;99.90;;;;;;5031383;28;20451;-50
2022/01/06 01:40:38;;;;;;;6.67;3.50;;;5.20;99.90;;;;;;5028898;28;20188;-54
2022/01/06 01:43:04;;;;;;;7.83;3.27;;;5.10;99.90;;;;;;5027792;28;20635;-50
2022/01/06 01:45:32;;;;;;;8.57;3.40;;;5.10;99.90;;;;;;5027131;28;20462;-50
2022/01/06 01:48:03;;;;;;;8.10;3.40;;;5.10;99.90;;;;;;5024372;28;20601;-49
2022/01/06 01:50:29;;;;;;;6.10;3.67;;;5.20;99.90;;;;;;5028970;28;20430;-56
2022/01/06 01:52:58;;;;;;;10.40;4.20;;;5.20;99.90;;;;;;5029517;28;20442;-54
2022/01/06 01:55:28;;;;;;;4.77;3.03;;;5.30;99.90;;;;;;5025753;28;20675;-56
2022/01/06 01:57:54;;;;;;;13.87;3.50;;;5.30;99.90;;;;;;5024467;28;20474;-53
2022/01/06 02:00:22;;;;;;;10.70;3.00;;;5.20;99.90;;;;;;5022875;28;20433;-52
2022/01/06 02:02:48;;;;;;;14.70;3.63;;;5.30;99.90;;;;;;5025882;28;20559;-53
2022/01/06 02:05:14;;;;;;;10.87;3.70;;;5.30;99.90;;;;;;5029294;28;20439;-56
2022/01/06 02:07:41;;;;;;;6.57;2.90;;;5.20;99.90;;;;;;5028125;28;20204;-55
2022/01/06 02:10:08;;;;;;;5.27;3.63;;;5.20;99.90;;;;;;5026353;28;20204;-53
2022/01/06 02:12:37;;;;;;;12.57;3.23;;;5.30;99.90;;;;;;5026619;28;20437;-49
2022/01/06 02:15:08;;;;;;;5.23;3.57;;;5.20;99.90;;;;;;5031191;28;20493;-51
2022/01/06 02:17:34;;;;;;;6.30;3.20;;;5.10;99.90;;;;;;5028411;28;20872;-51
2022/01/06 02:20:01;;;;;;;9.97;3.33;;;5.20;99.90;;;;;;5030161;28;20478;-55
2022/01/06 02:22:27;;;;;;;5.93;3.60;;;5.10;99.90;;;;;;5031492;28;20788;-51
2022/01/06 02:24:53;;;;;;;12.10;4.53;;;5.10;99.90;;;;;;5030467;28;20433;-51
2022/01/06 02:27:20;;;;;;;4.90;3.53;;;5.10;99.90;;;;;;5029496;28;20477;-50
2022/01/06 02:29:50;;;;;;;7.50;3.50;;;5.10;99.90;;;;;;5032964;28;20424;-55
2022/01/06 02:32:17;;;;;;;8.17;3.93;;;5.10;99.90;;;;;;5030232;28;20530;-53
2022/01/06 02:34:44;;;;;;;8.73;3.30;;;5.10;99.90;;;;;;5032190;28;20744;-51
2022/01/06 02:37:11;;;;;;;17.03;3.77;;;5.00;99.90;;;;;;5028833;28;20471;-55
2022/01/06 02:39:36;;;;;;;6.83;3.20;;;5.00;99.90;;;;;;5027608;28;20435;-55
2022/01/06 02:42:03;;;;;;;7.20;3.27;;;5.00;99.90;;;;;;5029240;28;20438;-57
2022/01/06 02:44:29;;;;;;;9.90;3.73;;;5.00;99.90;;;;;;5024610;28;20432;-56
2022/01/06 02:46:55;;;;;;;13.63;3.20;;;5.00;99.90;;;;;;5026092;28;22894;-55
2022/01/06 02:49:20;;;;;;;11.43;3.73;;;5.00;99.90;;;;;;5028331;28;20250;-54
2022/01/06 02:51:46;;;;;;;4.67;3.47;;;4.90;99.90;;;;;;5027967;28;20200;-54
2022/01/06 02:54:13;;;;;;;6.97;3.20;;;5.00;99.90;;;;;;5029825;28;20586;-55
2022/01/06 02:56:39;;;;;;;4.73;4.00;;;4.90;99.90;;;;;;5029764;28;20468;-55
2022/01/06 02:59:05;;;;;;;5.80;3.37;;;4.90;99.90;;;;;;5030067;28;21055;-53
2022/01/06 03:01:30;;;;;;;7.50;3.40;;;4.90;99.90;;;;;;5027350;28;20448;-56
2022/01/06 03:03:56;;;;;;;8.13;3.40;;;4.90;99.90;;;;;;5029936;28;20187;-55
2022/01/06 03:06:22;;;;;;;9.13;4.43;;;5.00;99.90;;;;;;5028845;28;20246;-56
2022/01/06 03:08:47;;;;;;;13.53;3.90;;;5.00;99.90;;;;;;5029273;28;20902;-55
2022/01/06 03:11:13;;;;;;;9.53;3.73;;;5.10;99.90;;;;;;5026799;28;20180;-55
2022/01/06 03:13:38;;;;;;;6.03;3.67;;;5.10;99.90;;;;;;5030593;28;20461;-56
2022/01/06 03:16:05;;;;;;;8.30;3.77;;;5.10;99.90;;;;;;5027963;28;20266;-54
2022/01/06 03:18:30;;;;;;;9.33;4.20;;;5.10;99.90;;;;;;5024964;28;20264;-51
2022/01/06 03:20:56;;;;;;;7.30;4.03;;;5.20;99.90;;;;;;5032024;28;20924;-55
2022/01/06 03:23:22;;;;;;;5.47;3.90;;;5.10;99.90;;;;;;5025821;28;20188;-55
2022/01/06 03:25:47;;;;;;;7.43;3.87;;;5.10;99.90;;;;;;5029966;28;20191;-54
2022/01/06 03:28:13;;;;;;;11.50;4.67;;;5.20;99.90;;;;;;5022461;28;20574;-53
2022/01/06 03:30:39;;;;;;;5.73;3.40;;;5.20;99.90;;;;;;5022859;28;20172;-54
2022/01/06 03:33:04;;;;;;;7.97;3.63;;;5.00;99.90;;;;;;5026564;28;20207;-56
2022/01/06 03:35:31;;;;;;;6.10;3.27;;;5.10;99.90;;;;;;5026435;28;20195;-55
2022/01/06 03:37:56;;;;;;;5.20;3.40;;;5.10;99.90;;;;;;5026917;28;20663;-56
2022/01/06 03:40:22;;;;;;;11.17;4.13;;;5.00;99.90;;;;;;5027623;28;20458;-52
2022/01/06 03:42:48;;;;;;;8.20;4.27;;;5.00;99.90;;;;;;5025794;28;20263;-56
2022/01/06 03:45:16;;;;;;;5.67;4.70;;;5.00;99.90;;;;;;5027131;28;20554;-54
2022/01/06 03:47:42;;;;;;;9.17;4.10;;;4.90;99.90;;;;;;5023063;28;20200;-55
2022/01/06 03:50:08;;;;;;;6.90;3.97;;;4.90;99.90;;;;;;5028253;28;20974;-56
2022/01/06 03:52:34;;;;;;;8.37;3.63;;;4.90;99.90;;;;;;5029972;28;20654;-57
2022/01/06 03:55:00;;;;;;;7.70;4.00;;;5.00;99.90;;;;;;5035704;28;20422;-52
2022/01/06 03:57:26;;;;;;;9.87;4.03;;;4.90;99.90;;;;;;5025727;28;20614;-56
2022/01/06 03:59:52;;;;;;;8.43;3.60;;;4.90;99.90;;;;;;5027155;28;20435;-54
2022/01/06 04:02:17;;;;;;;4.10;3.30;;;5.00;99.90;;;;;;5023784;28;20188;-54
2022/01/06 04:04:43;;;;;;;11.20;3.90;;;5.00;99.90;;;;;;5030331;28;20179;-53
2022/01/06 04:07:08;;;;;;;12.93;4.03;;;4.80;99.90;;;;;;5030503;28;20223;-54
2022/01/06 04:09:34;;;;;;;10.83;4.17;;;4.80;99.90;;;;;;5026602;28;20185;-54
2022/01/06 04:12:00;;;;;;;9.17;4.23;;;4.70;99.90;;;;;;5029978;28;20539;-55
2022/01/06 04:14:25;;;;;;;4.80;2.97;;;4.70;99.90;;;;;;5025165;28;20214;-54
2022/01/06 04:16:58;;;;;;;16.13;4.37;;;4.70;99.90;;;;;;5025616;28;20211;-53
2022/01/06 04:19:23;;;;;;;10.20;4.33;;;4.70;99.90;;;;;;5026947;28;20197;-53
2022/01/06 04:21:49;;;;;;;15.23;4.10;;;4.70;99.90;;;;;;5027790;28;21080;-54
2022/01/06 04:24:14;;;;;;;18.13;4.00;;;4.70;99.90;;;;;;5022972;28;20184;-55
2022/01/06 04:26:40;;;;;;;9.03;4.00;;;4.60;99.90;;;;;;5027876;28;20244;-54
2022/01/06 04:29:06;;;;;;;9.30;3.77;;;4.70;99.90;;;;;;5027728;28;20570;-56
2022/01/06 04:31:31;;;;;;;9.10;4.43;;;4.70;99.90;;;;;;5025229;28;20222;-55
2022/01/06 04:33:57;;;;;;;7.03;3.90;;;4.70;99.90;;;;;;5027806;28;21053;-53
2022/01/06 04:36:23;;;;;;;8.60;3.90;;;4.70;99.90;;;;;;5025719;28;20637;-53
2022/01/06 04:38:48;;;;;;;11.40;4.40;;;4.70;99.90;;;;;;5029651;28;20215;-55
2022/01/06 04:41:14;;;;;;;8.63;4.33;;;4.60;99.90;;;;;;5029539;28;20207;-55
2022/01/06 04:43:39;;;;;;;8.27;4.30;;;4.60;99.90;;;;;;5025719;28;20181;-50
2022/01/06 04:46:05;;;;;;;10.70;4.13;;;4.60;99.90;;;;;;5027595;28;20216;-53
2022/01/06 04:48:31;;;;;;;12.10;4.67;;;4.70;99.90;;;;;;5026232;28;20196;-51
2022/01/06 04:50:56;;;;;;;8.57;4.50;;;4.60;99.90;;;;;;5026587;28;20821;-53
2022/01/06 04:53:22;;;;;;;7.60;3.97;;;4.60;99.90;;;;;;5024733;28;20525;-57
2022/01/06 04:55:49;;;;;;;15.40;4.63;;;4.60;99.90;;;;;;5028925;28;20246;-56
2022/01/06 04:58:15;;;;;;;7.07;4.60;;;4.60;99.90;;;;;;5026147;28;20768;-55
2022/01/06 05:00:40;;;;;;;8.13;3.93;;;4.50;99.90;;;;;;5024898;28;20510;-52
2022/01/06 05:03:06;;;;;;;6.33;3.70;;;4.50;99.90;;;;;;5026101;28;20177;-52
2022/01/06 05:05:31;;;;;;;13.77;5.33;;;4.40;99.90;;;;;;5026323;28;20188;-53
2022/01/06 05:07:57;;;;;;;6.87;3.80;;;4.40;99.90;;;;;;5033838;28;20208;-53
2022/01/06 05:10:23;;;;;;;11.63;4.67;;;4.40;99.90;;;;;;5030782;28;20591;-56
2022/01/06 05:12:48;;;;;;;11.00;4.20;;;4.30;99.90;;;;;;5031589;28;20222;-54
2022/01/06 05:15:14;;;;;;;5.53;4.37;;;4.30;99.90;;;;;;5029054;28;20188;-54
2022/01/06 05:17:41;;;;;;;6.73;4.40;;;4.30;99.90;;;;;;5027046;28;20604;-54
2022/01/06 05:20:07;;;;;;;7.73;4.47;;;4.40;99.90;;;;;;5031074;28;20185;-56
2022/01/06 05:22:35;;;;;;;8.50;4.40;;;4.40;99.90;;;;;;5032775;28;20636;-56
2022/01/06 05:25:01;;;;;;;6.87;5.20;;;4.40;99.90;;;;;;5029037;28;20447;-52
2022/01/06 05:27:26;;;;;;;6.90;3.97;;;4.30;99.90;;;;;;5031016;28;20955;-56
2022/01/06 05:29:52;;;;;;;11.40;4.63;;;4.40;99.90;;;;;;5029058;28;20192;-54
2022/01/06 05:32:18;;;;;;;13.90;4.70;;;4.40;99.90;;;;;;5032651;28;20180;-54
2022/01/06 05:34:44;;;;;;;12.70;4.70;;;4.40;99.90;;;;;;5026489;28;20426;-54
2022/01/06 05:37:09;;;;;;;11.03;4.27;;;4.30;99.90;;;;;;5032665;28;20278;-52
2022/01/06 05:39:35;;;;;;;6.80;4.40;;;4.40;99.90;;;;;;5029487;28;20220;-55
2022/01/06 05:42:01;;;;;;;8.10;4.30;;;4.40;99.90;;;;;;5031891;28;20195;-56
2022/01/06 05:44:27;;;;;;;7.37;4.30;;;4.40;99.90;;;;;;5030051;28;20185;-54
2022/01/06 05:46:53;;;;;;;8.10;3.70;;;4.40;99.90;;;;;;5028510;28;20191;-57
2022/01/06 05:49:18;;;;;;;9.67;4.57;;;4.50;99.90;;;;;;5030711;28;20435;-50
2022/01/06 05:51:44;;;;;;;8.57;4.70;;;4.50;99.90;;;;;;5027843;28;20267;-53
2022/01/06 05:54:10;;;;;;;15.03;5.50;;;4.40;99.90;;;;;;5031744;28;20625;-56
2022/01/06 05:56:35;;;;;;;5.83;5.00;;;4.40;99.90;;;;;;5028505;28;20210;-56
2022/01/06 05:59:01;;;;;;;7.20;5.03;;;4.40;99.90;;;;;;5029196;28;20226;-57
2022/01/06 06:01:26;;;;;;;8.27;5.00;;;4.40;99.90;;;;;;5032199;28;20184;-55
2022/01/06 06:03:54;;;;;;;8.70;5.40;;;4.50;99.90;;;;;;5031084;28;20216;-56
2022/01/06 06:06:20;;;;;;;9.60;5.07;;;4.40;99.90;;;;;;5031496;28;20622;-57
2022/01/06 06:08:46;;;;;;;7.60;4.67;;;4.50;99.90;;;;;;5028075;28;20546;-55
2022/01/06 06:11:11;;;;;;;10.83;5.87;;;4.40;99.90;;;;;;5027693;28;20219;-54
2022/01/06 06:13:37;;;;;;;11.67;5.37;;;4.30;99.90;;;;;;5028077;28;20192;-56
2022/01/06 06:16:03;;;;;;;10.70;5.40;;;4.40;99.90;;;;;;5027024;28;20265;-54
2022/01/06 06:18:28;;;;;;;7.87;4.60;;;4.30;99.90;;;;;;5025521;28;20210;-54
2022/01/06 06:20:54;;;;;;;7.30;5.20;;;4.30;99.90;;;;;;5027408;28;20428;-55
2022/01/06 06:23:19;;;;;;;15.70;6.43;;;4.30;99.90;;;;;;5026240;28;20191;-55
2022/01/06 06:25:45;;;;;;;12.63;5.83;;;4.30;99.90;;;;;;5033092;28;20189;-55
2022/01/06 06:28:10;;;;;;;8.03;4.30;;;4.30;99.90;;;;;;5028348;28;20692;-58
2022/01/06 06:30:36;;;;;;;7.37;5.00;;;4.40;99.90;;;;;;5027496;28;20260;-57
2022/01/06 06:33:02;;;;;;;19.30;5.97;;;4.40;99.90;;;;;;5028040;28;20554;-56
2022/01/06 06:35:29;;;;;;;12.13;4.97;;;4.40;99.90;;;;;;5023588;28;20208;-57
2022/01/06 06:37:55;;;;;;;10.73;5.33;;;4.40;99.90;;;;;;5027422;28;20476;-56
2022/01/06 06:40:23;;;;;;;9.93;5.20;;;4.40;99.90;;;;;;5023282;28;20947;-52
2022/01/06 06:42:49;;;;;;;10.80;5.13;;;4.30;99.90;;;;;;5026733;28;20447;-56
2022/01/06 06:45:15;;;;;;;9.87;4.73;;;4.20;99.90;;;;;;5032054;28;20533;-55
2022/01/06 06:47:41;;;;;;;10.07;6.23;;;4.20;99.90;;;;;;5030837;28;20461;-52
2022/01/06 06:50:07;;;;;;;7.70;5.53;;;4.20;99.90;;;;;;5028175;28;20431;-56
2022/01/06 06:52:33;;;;;;;9.17;5.40;;;4.30;99.90;;;;;;5027271;28;20687;-54
2022/01/06 06:54:59;;;;;;;10.37;5.10;;;4.30;99.90;;;;;;5026196;28;20423;-53
2022/01/06 06:57:24;;;;;;;9.20;4.70;;;4.30;99.90;;;;;;5050034;22;20311;-49
2022/01/06 06:59:50;;;;;;;9.93;5.40;;;4.30;99.90;;;;;;5063998;28;20406;-53
2022/01/06 07:02:15;;;;;;;11.53;5.90;;;4.20;99.90;;;;;;5059726;28;20273;-52
2022/01/06 07:04:41;;;;;;;7.30;6.00;;;4.30;99.90;;;;;;5057958;28;20187;-52
2022/01/06 07:07:06;;;;;;;8.00;4.90;;;4.30;99.90;;;;;;5057859;28;20187;-51
2022/01/06 07:09:32;;;;;;;10.67;5.33;;;4.40;99.90;;;;;;5043606;28;20274;-50
2022/01/06 07:11:58;;;;;;;11.10;5.10;;;4.40;99.90;;;;;;5043510;28;20254;-54
2022/01/06 07:14:23;;;;;;;15.50;7.70;;;4.40;99.90;;;;;;5044646;28;20191;-52
2022/01/06 07:16:49;;;;;;;6.63;4.83;;;4.40;99.90;;;;;;5042480;28;20215;-50
2022/01/06 07:19:14;;;;;;;9.00;5.60;;;4.40;99.90;;;;;;5043997;28;20676;-53
2022/01/06 07:21:40;;;;;;;14.80;5.80;;;4.50;99.90;;;;;;5043424;28;20179;-53
2022/01/06 07:24:06;;;;;;;6.60;5.10;;;4.50;99.90;;;;;;5044376;28;20246;-50
2022/01/06 07:26:32;;;;;;;10.63;5.43;;;4.50;99.90;;;;;;5040119;28;20637;-52
2022/01/06 07:28:57;;;;;;;10.73;5.90;;;4.50;99.90;;;;;;5042789;28;20208;-53
2022/01/06 07:31:23;;;;;;;13.13;5.47;;;4.50;99.90;;;;;;5041788;28;20679;-51
2022/01/06 07:33:48;;;;;;;11.30;5.47;;;4.60;99.90;;;;;;5043838;28;20249;-53
2022/01/06 07:36:14;;;;;;;11.23;6.50;;;4.60;99.90;;;;;;5043065;28;20287;-52
2022/01/06 07:38:40;;;;;;;7.73;5.20;;;4.40;99.90;;;;;;5041332;28;20196;-51
2022/01/06 07:41:05;;;;;;;8.67;5.23;;;4.30;99.90;;;;;;5043699;28;20179;-53
2022/01/06 07:43:31;;;;;;;9.10;6.07;;;4.30;99.90;;;;;;5038500;28;20653;-49
2022/01/06 07:45:56;;;;;;;9.37;5.30;;;4.20;99.90;;;;;;5044344;28;20226;-53
2022/01/06 07:48:29;;;;;;;11.77;6.37;;;4.30;99.90;;;;;;5044296;28;20261;-50
2022/01/06 07:50:55;;;;;;;11.93;6.23;;;4.30;99.90;;;;;;5038123;28;20184;-53
2022/01/06 07:53:20;;;;;;;13.97;6.43;;;4.40;99.90;;;;;;5043407;28;20495;-53
2022/01/06 07:55:46;;;;;;;15.83;6.43;;;4.40;99.90;;;;;;5041564;28;20833;-51
2022/01/06 07:58:12;;;;;;;10.50;7.00;;;4.40;99.90;;;;;;5041598;28;20424;-53
2022/01/06 08:00:37;;;;;;;9.33;5.80;;;4.40;99.90;;;;;;5039960;28;20560;-54
2022/01/06 08:03:03;;;;;;;10.40;6.50;;;4.40;99.90;;;;;;5037230;28;20237;-53
2022/01/06 08:05:29;;;;;;;7.20;5.87;;;4.30;99.90;;;;;;5040763;28;20184;-53
2022/01/06 08:07:55;;;;;;;9.27;5.90;;;4.30;99.90;;;;;;5038288;28;20222;-52
2022/01/06 08:10:22;;;;;;;10.37;6.03;;;4.30;99.90;;;;;;5041380;28;20545;-52
2022/01/06 08:12:49;;;;;;;13.47;6.47;;;4.40;99.90;;;;;;5042278;28;21083;-55
2022/01/06 08:15:14;;;;;;;12.40;6.67;;;4.40;99.90;;;;;;5040990;28;20428;-51
2022/01/06 08:17:41;;;;;;;11.50;6.97;;;4.30;99.90;;;;;;5039940;28;20560;-50
2022/01/06 08:20:08;;;;;;;10.00;5.90;;;4.40;99.90;;;;;;5040522;28;20195;-54
2022/01/06 08:22:35;;;;;;;10.20;5.90;;;4.40;99.90;;;;;;5042634;28;20434;-49
2022/01/06 08:25:02;;;;;;;9.93;6.40;;;4.40;99.90;;;;;;5041996;28;20444;-53
2022/01/06 08:27:27;;;;;;;9.20;5.60;;;4.40;99.90;;;;;;5040907;28;20490;-54
2022/01/06 08:29:53;;;;;;;8.87;5.57;;;4.50;99.90;;;;;;5043190;28;20465;-53
2022/01/06 08:32:19;;;;;;;9.10;6.00;;;4.40;99.90;;;;;;5042118;28;20253;-50
2022/01/06 08:34:45;;;;;;;9.60;6.80;;;4.40;99.90;;;;;;5039560;28;20191;-50
2022/01/06 08:37:11;;;;;;;10.40;6.40;;;4.50;99.90;;;;;;5039771;28;20465;-53
2022/01/06 08:39:36;;;;;;;7.93;5.60;;;4.50;99.90;;;;;;5040835;28;20652;-51
2022/01/06 08:42:03;;;;;;;11.50;6.17;;;4.60;99.90;;;;;;5040798;28;20460;-53
2022/01/06 08:44:28;;;;;;;8.60;5.13;;;4.60;99.90;;;;;;5040765;28;20184;-48
2022/01/06 08:46:55;;;;;;;15.57;6.13;;;4.60;99.90;;;;;;5038536;28;20820;-53
2022/01/06 08:49:21;;;;;;;8.40;5.70;;;4.70;99.90;;;;;;5038628;28;20203;-54
2022/01/06 08:51:48;;;;;;;14.20;7.13;;;4.60;99.90;;;;;;5036424;28;20445;-51
2022/01/06 08:54:14;;;;;;;10.10;6.70;;;4.70;99.90;;;;;;5040117;28;20557;-49
2022/01/06 08:56:39;;;;;;;14.27;8.00;;;4.70;99.90;;;;;;5041387;28;20463;-56
2022/01/06 08:59:05;;;;;;;15.07;7.47;;;4.60;99.90;;;;;;5041438;28;20227;-51
2022/01/06 09:01:32;;;;;;;11.37;6.57;;;4.60;99.90;;;;;;5042241;28;20192;-51
2022/01/06 09:03:58;;;;;;;10.73;6.80;;;4.60;99.90;;;;;;5041129;28;20235;-50
2022/01/06 09:06:24;;;;;;;12.57;7.20;;;4.60;99.90;;;;;;5041237;28;20628;-51
2022/01/06 09:08:49;;;;;;;10.60;6.20;;;4.60;99.90;;;;;;5040590;28;20464;-53
2022/01/06 09:11:15;;;;;;;9.80;6.83;;;4.60;99.90;;;;;;5040181;28;20445;-52
2022/01/06 09:13:41;;;;;;;11.70;7.33;;;4.60;99.90;;;;;;5042561;28;20608;-53
2022/01/06 09:16:08;;;;;;;11.60;6.83;;;4.70;99.90;;;;;;5041272;28;20212;-53
2022/01/06 09:18:35;;;;;;;17.03;7.80;;;4.70;99.90;;;;;;5041118;28;20532;-54
2022/01/06 09:21:01;;;;;;;12.80;6.47;;;4.70;99.90;;;;;;5041932;28;20450;-52
2022/01/06 09:23:26;;;;;;;8.63;5.80;;;4.80;99.90;;;;;;5041463;28;20429;-52
2022/01/06 09:25:52;;;;;;;13.67;6.30;;;5.00;99.90;;;;;;5039694;28;20180;-53
2022/01/06 09:28:17;;;;;;;10.60;6.87;;;4.90;99.90;;;;;;5038117;28;20203;-52
2022/01/06 09:30:43;;;;;;;9.50;6.77;;;4.90;99.90;;;;;;5044162;28;20676;-53
2022/01/06 09:33:09;;;;;;;18.27;7.07;;;4.90;99.90;;;;;;5039515;28;20192;-52
2022/01/06 09:35:34;;;;;;;12.47;7.70;;;4.90;99.90;;;;;;5040015;28;20184;-50
2022/01/06 09:38:00;;;;;;;8.90;6.37;;;4.80;99.90;;;;;;5041729;28;20244;-53
2022/01/06 09:40:26;;;;;;;12.73;6.97;;;4.80;99.90;;;;;;5043641;28;20257;-52
2022/01/06 09:42:54;;;;;;;14.47;7.40;;;4.90;99.90;;;;;;5040243;28;20700;-53
2022/01/06 09:45:23;;;;;;;14.80;7.70;;;4.90;99.90;;;;;;5039396;28;20344;-50
2022/01/06 09:47:49;;;;;;;12.67;7.80;;;4.90;99.90;;;;;;5039380;28;20477;-52
2022/01/06 09:50:15;;;;;;;8.60;6.60;;;5.00;99.90;;;;;;5040452;28;20426;-49
2022/01/06 09:52:41;;;;;;;8.70;6.10;;;5.00;99.90;;;;;;5043163;28;20831;-53
2022/01/06 09:55:07;;;;;;;11.80;7.03;;;4.90;99.90;;;;;;5046081;28;20348;-53
2022/01/06 09:57:33;;;;;;;12.33;6.93;;;5.00;99.90;;;;;;5045865;28;20489;-52
2022/01/06 09:59:59;;;;;;;15.40;7.90;;;5.00;99.90;;;;;;5043504;28;20458;-52
2022/01/06 10:02:38;;;;;;;9.03;7.60;;;4.90;99.90;;;;;;5042500;28;20879;-54
2022/01/06 10:05:05;;;;;;;11.47;7.73;;;5.00;99.90;;;;;;5045365;28;20433;-53
2022/01/06 10:07:41;;;;;;;10.57;6.30;;;5.00;99.90;;;;;;5045262;28;20454;-53
2022/01/06 10:10:09;;;;;;;13.00;7.70;;;5.10;99.90;;;;;;5041197;28;20427;-52
2022/01/06 10:12:36;;;;;;;8.53;6.20;;;5.10;99.90;;;;;;5043342;28;20553;-51
2022/01/06 10:15:02;;;;;;;11.27;7.30;;;5.30;99.90;;;;;;5047616;28;20434;-52
2022/01/06 10:17:33;;;;;;;11.47;6.90;;;5.30;99.90;;;;;;5044002;28;20470;-49
2022/01/06 10:20:28;;;;;;;12.20;7.23;;;5.20;99.90;;;;;;5040046;28;20438;-55
2022/01/06 10:22:56;;;;;;;16.70;7.17;;;5.30;99.90;;;;;;5032998;28;20442;-52
2022/01/06 10:25:25;;;;;;;14.80;7.47;;;5.40;99.90;;;;;;5037815;28;20513;-53
2022/01/06 10:27:56;;;;;;;19.60;7.50;;;5.30;99.90;;;;;;5044323;28;20450;-53
2022/01/06 10:30:23;;;;;;;14.33;6.50;;;5.30;99.90;;;;;;5042222;28;20895;-54
2022/01/06 10:32:49;;;;;;;7.90;6.80;;;5.30;99.90;;;;;;5043353;28;20583;-54
2022/01/06 10:35:20;;;;;;;12.10;7.10;;;5.40;99.90;;;;;;5042069;28;20446;-52
2022/01/06 10:37:48;;;;;;;9.60;6.93;;;5.40;99.90;;;;;;5040858;28;20407;-54
2022/01/06 10:40:23;;;;;;;14.20;7.17;;;5.40;99.90;;;;;;5043868;28;20438;-53
2022/01/06 10:42:52;;;;;;;9.93;6.90;;;5.30;99.90;;;;;;5041439;28;20440;-52
2022/01/06 10:45:24;;;;;;;14.23;7.17;;;5.40;99.90;;;;;;5042163;28;20430;-53
2022/01/06 10:47:52;;;;;;;11.67;7.27;;;5.60;99.90;;;;;;5042111;28;20520;-53
2022/01/06 10:50:20;;;;;;;11.00;6.20;;;5.50;99.90;;;;;;5043340;28;20497;-51
2022/01/06 10:52:47;;;;;;;11.60;6.63;;;5.50;99.90;;;;;;5042224;28;20792;-53
2022/01/06 10:55:17;;;;;;;10.83;7.63;;;5.60;99.90;;;;;;5041536;28;20448;-54
2022/01/06 10:58:13;;;;;;;17.73;6.40;;;5.60;99.90;;;;;;5042225;28;20473;-51
2022/01/06 11:00:40;;;;;;;14.77;7.70;;;5.60;99.90;;;;;;5008739;28;20445;-58
2022/01/06 11:03:11;;;;;;;10.57;7.10;;;5.60;99.90;;;;;;5041684;28;20430;-53
2022/01/06 11:05:40;;;;;;;10.07;5.97;;;5.70;99.90;;;;;;5041475;28;20478;-52
2022/01/06 11:08:06;;;;;;;9.27;6.13;;;5.60;99.90;;;;;;5044580;28;20866;-51
2022/01/06 11:10:36;;;;;;;10.73;6.50;;;5.70;99.90;;;;;;5042001;28;20946;-55
2022/01/06 11:13:03;;;;;;;12.33;5.70;;;5.90;99.90;;;;;;5042742;28;21156;-53
2022/01/06 11:15:29;;;;;;;12.40;5.87;;;5.90;99.90;;;;;;5044161;28;20798;-54
2022/01/06 11:17:55;;;;;;;11.93;5.83;;;5.90;99.90;;;;;;5042656;28;20468;-51
2022/01/06 11:20:25;;;;;;;13.57;6.70;;;5.80;99.90;;;;;;5043793;28;21337;-53
2022/01/06 11:22:53;;;;;;;8.10;5.50;;;5.80;99.90;;;;;;5038017;28;20209;-54
2022/01/06 11:25:34;;;;;;;14.43;6.70;;;5.70;99.90;;;;;;5038385;28;20735;-51
2022/01/06 11:28:11;;;;;;;14.37;5.93;;;5.80;99.90;;;;;;5040411;28;20503;-54
2022/01/06 11:30:49;;;;;;;7.97;5.90;;;5.90;99.90;;;;;;5039965;28;20806;-53
2022/01/06 11:33:15;;;;;;;7.40;4.90;;;5.90;99.90;;;;;;5039233;28;20593;-55
2022/01/06 11:35:55;;;;;;;10.83;5.20;;;6.00;99.90;;;;;;5039529;28;20454;-55
2022/01/06 11:38:26;;;;;;;11.87;5.20;;;6.00;99.90;;;;;;5039173;28;20976;-55
2022/01/06 11:41:09;;;;;;;8.20;5.57;;;6.00;99.90;;;;;;5043570;28;20469;-55
2022/01/06 11:43:40;;;;;;;15.83;5.00;;;6.10;99.90;;;;;;5039101;28;20474;-53
2022/01/06 11:46:05;;;;;;;6.77;5.70;;;6.20;99.90;;;;;;5041427;28;20695;-54
2022/01/06 11:48:31;;;;;;;15.63;5.47;;;6.10;99.90;;;;;;5042343;28;20453;-54
2022/01/06 11:50:57;;;;;;;7.57;5.27;;;6.10;99.90;;;;;;5040309;28;20184;-54
2022/01/06 11:53:33;;;;;;;11.77;6.00;;;6.10;99.90;;;;;;5041883;28;20438;-54
2022/01/06 11:56:11;;;;;;;11.00;5.57;;;6.30;99.90;;;;;;5041201;28;20191;-55
2022/01/06 11:58:37;;;;;;;8.23;5.73;;;6.40;99.90;;;;;;5032768;28;20496;-50
2022/01/06 12:01:06;;;;;;;8.83;5.30;;;6.50;99.90;;;;;;5040147;28;20496;-49
2022/01/06 12:03:41;;;;;;;10.63;5.67;;;6.50;99.90;;;;;;5039757;28;20427;-54
2022/01/06 12:06:09;;;;;;;8.80;5.77;;;6.60;99.90;;;;;;5040769;28;20454;-53
2022/01/06 12:08:36;;;;;;;11.20;6.00;;;6.70;99.90;;;;;;5039348;28;20469;-52
2022/01/06 12:11:02;;;;;;;6.67;5.43;;;6.80;99.90;;;;;;5039489;28;20453;-55
2022/01/06 12:13:28;;;;;;;8.60;5.03;;;7.00;99.90;;;;;;5038534;28;20448;-55
2022/01/06 12:15:56;;;;;;;9.23;6.00;;;7.40;99.90;;;;;;5039278;28;20928;-56
2022/01/06 12:18:27;;;;;;;11.70;5.37;;;7.60;99.90;;;;;;5039166;28;20215;-53
2022/01/06 12:20:54;;;;;;;9.97;4.80;;;7.70;99.90;;;;;;5037869;28;20430;-53
2022/01/06 12:23:21;;;;;;;10.73;5.33;;;7.70;99.90;;;;;;5040253;28;20788;-54
2022/01/06 12:26:01;;;;;;;9.80;5.43;;;7.90;99.90;;;;;;5039897;28;20442;-54
2022/01/06 12:28:28;;;;;;;13.80;6.20;;;8.10;99.90;;;;;;5038463;28;20454;-52
2022/01/06 12:31:02;;;;;;;14.10;8.53;;;8.40;99.90;;;;;;5040995;28;20986;-52
2022/01/06 12:33:30;;;;;;;10.77;6.03;;;8.50;99.90;;;;;;5039581;28;20440;-55
2022/01/06 12:35:56;;;;;;;10.03;6.53;;;8.50;99.90;;;;;;5034473;28;20442;-53
2022/01/06 12:38:31;;;;;;;10.97;8.80;;;8.40;99.90;;;;;;5040976;28;20448;-55
2022/01/06 12:41:00;;;;;;;13.93;5.60;;;8.20;99.90;;;;;;5039664;28;20522;-54
2022/01/06 12:43:28;;;;;;;7.10;4.80;;;8.10;99.90;;;;;;5040887;28;20446;-55
2022/01/06 12:46:04;;;;;;;11.00;7.00;;;7.80;99.90;;;;;;5042839;28;20423;-55
2022/01/06 12:48:33;;;;;;;11.87;8.43;;;7.80;99.90;;;;;;5038299;28;20477;-56
2022/01/06 12:50:59;;;;;;;14.17;8.87;;;8.00;99.90;;;;;;5040126;28;20434;-53
2022/01/06 12:53:31;;;;;;;14.97;9.13;;;7.90;99.90;;;;;;5036782;28;20427;-54
2022/01/06 12:55:57;;;;;;;11.67;6.97;;;7.90;99.90;;;;;;5037027;28;20434;-55
2022/01/06 12:58:32;;;;;;;9.80;5.77;;;7.80;99.90;;;;;;5040169;28;20477;-54
2022/01/06 13:01:07;;;;;;;13.00;5.13;;;7.70;99.90;;;;;;5038125;28;20434;-54